Time;durP1;ratioP1;P1;durP2;ratioP2;P2;SDS_P1;SDS_P2;PMS_P1;PMS_P2;Temp;Humidity;BMP_temperature;BMP_pressure;BME280_temperature;BME280_humidity;BME280_pressure;Samples;Min_cycle;Max_cycle;Signal;HPM_P1;HPM_P2
2021/12/18 15:02:14;;;;;;;24.43;10.23;;;5.20;99.90;;;;;;5062974;27;20544;-69
2021/12/18 15:04:39;;;;;;;19.80;10.40;;;5.20;99.90;;;;;;5041328;28;20411;-69
2021/12/18 15:07:24;;;;;;;21.47;10.27;;;5.30;99.90;;;;;;5040263;28;20173;-70
2021/12/18 15:09:57;;;;;;;21.90;11.00;;;5.60;99.90;;;;;;5040298;28;20668;-67
2021/12/18 15:12:25;;;;;;;21.90;11.20;;;5.70;99.90;;;;;;5038720;28;20433;-69
2021/12/18 15:14:50;;;;;;;20.10;9.93;;;5.80;99.90;;;;;;5039301;28;20462;-70
2021/12/18 15:17:16;;;;;;;20.30;10.47;;;5.90;99.90;;;;;;5039155;28;20420;-69
2021/12/18 15:19:42;;;;;;;22.27;11.50;;;6.10;99.90;;;;;;5040261;28;20181;-69
2021/12/18 15:22:14;;;;;;;24.57;14.27;;;6.10;99.90;;;;;;5041212;28;20197;-69
2021/12/18 15:24:43;;;;;;;25.57;13.67;;;6.20;99.90;;;;;;5041657;28;20629;-69
2021/12/18 15:27:10;;;;;;;23.27;13.27;;;6.20;99.90;;;;;;5134730;27;20429;-70
2021/12/18 15:29:39;;;;;;;25.90;12.00;;;6.30;99.90;;;;;;5036580;28;20556;-69
2021/12/18 15:32:07;;;;;;;20.33;11.37;;;6.20;99.90;;;;;;5040343;28;20416;-69
2021/12/18 15:34:33;;;;;;;23.50;11.53;;;6.20;99.90;;;;;;5037337;28;20412;-69
2021/12/18 15:37:02;;;;;;;19.93;10.90;;;6.30;99.90;;;;;;5038664;28;20420;-68
2021/12/18 15:39:30;;;;;;;19.40;11.37;;;6.30;99.90;;;;;;5039884;28;20635;-69
2021/12/18 15:41:56;;;;;;;21.83;12.13;;;6.40;99.90;;;;;;5041251;28;20455;-69
2021/12/18 15:44:22;;;;;;;25.83;13.40;;;6.40;99.90;;;;;;5036558;28;20531;-68
2021/12/18 15:46:48;;;;;;;23.13;12.30;;;6.40;99.90;;;;;;5039892;28;20539;-70
2021/12/18 15:49:14;;;;;;;27.40;12.47;;;9.10;99.90;;;;;;5039059;28;20935;-69
2021/12/18 15:51:41;;;;;;;23.37;12.77;;;6.40;99.90;;;;;;5037977;28;20195;-68
2021/12/18 15:54:08;;;;;;;32.20;15.97;;;6.40;99.90;;;;;;5034032;28;20891;-69
2021/12/18 15:56:34;;;;;;;26.90;13.30;;;6.40;99.90;;;;;;5034767;28;20475;-69
2021/12/18 15:59:00;;;;;;;24.93;11.43;;;6.40;99.90;;;;;;5039669;28;20412;-69
2021/12/18 16:01:26;;;;;;;22.60;11.60;;;6.30;99.90;;;;;;5039491;28;20475;-69
2021/12/18 16:03:52;;;;;;;28.07;13.93;;;6.30;99.90;;;;;;5039653;28;20675;-68
2021/12/18 16:06:18;;;;;;;24.00;12.60;;;6.30;99.90;;;;;;5037398;28;20169;-68
2021/12/18 16:08:46;;;;;;;24.07;11.57;;;6.40;99.90;;;;;;5039652;28;20423;-68
2021/12/18 16:11:13;;;;;;;21.20;10.40;;;6.30;99.90;;;;;;5040115;28;20200;-69
2021/12/18 16:13:38;;;;;;;32.90;18.30;;;6.30;99.90;;;;;;5026435;28;20453;-69
2021/12/18 16:16:04;;;;;;;23.43;11.13;;;6.30;99.90;;;;;;5026328;28;20484;-68
2021/12/18 16:18:30;;;;;;;28.63;12.73;;;6.40;99.90;;;;;;5025046;28;20182;-69
2021/12/18 16:20:58;;;;;;;21.87;11.97;;;6.40;99.90;;;;;;5025901;28;20278;-68
2021/12/18 16:23:24;;;;;;;21.40;11.27;;;6.40;99.90;;;;;;5027278;28;20190;-69
2021/12/18 16:25:50;;;;;;;19.30;10.30;;;6.40;99.90;;;;;;5026219;28;20942;-71
2021/12/18 16:28:17;;;;;;;20.90;11.33;;;6.30;99.90;;;;;;5026339;28;20557;-68
2021/12/18 16:30:43;;;;;;;21.63;11.80;;;6.30;99.90;;;;;;5024632;28;20567;-68
2021/12/18 16:33:09;;;;;;;24.33;11.67;;;6.30;99.90;;;;;;5025928;28;20520;-68
2021/12/18 16:35:35;;;;;;;26.57;12.30;;;6.30;99.90;;;;;;5025328;28;20170;-71
2021/12/18 16:38:32;;;;;;;22.47;12.37;;;6.30;99.90;;;;;;5026596;28;20413;-70
2021/12/18 16:40:54;;;;;;;25.50;13.27;;;6.50;99.90;;;;;;5026253;28;20220;-71
2021/12/18 16:43:21;;;;;;;19.53;10.30;;;6.50;99.90;;;;;;5026320;28;20421;-73
2021/12/18 16:45:46;;;;;;;18.80;10.80;;;6.40;99.90;;;;;;5025106;28;20202;-72
2021/12/18 16:48:17;;;;;;;24.10;12.03;;;6.40;99.90;;;;;;5026048;28;20934;-70
2021/12/18 16:50:47;;;;;;;20.03;10.70;;;6.40;99.90;;;;;;5025903;28;20602;-71
2021/12/18 16:53:13;;;;;;;20.30;11.40;;;6.40;99.90;;;;;;5025895;28;20519;-71
2021/12/18 16:55:39;;;;;;;25.10;12.00;;;6.30;99.90;;;;;;5020186;28;20436;-71
2021/12/18 16:58:05;;;;;;;19.87;10.30;;;6.30;99.90;;;;;;5024597;28;20452;-71
2021/12/18 17:00:31;;;;;;;22.77;11.27;;;6.30;99.90;;;;;;5023138;28;20309;-71
2021/12/18 17:03:01;;;;;;;23.83;11.53;;;6.30;99.90;;;;;;5024882;28;20718;-70
2021/12/18 17:05:32;;;;;;;21.13;12.37;;;6.30;99.90;;;;;;5025038;28;20193;-72
2021/12/18 17:07:58;;;;;;;22.47;12.47;;;6.30;99.90;;;;;;5024503;28;20451;-74
2021/12/18 17:10:23;;;;;;;24.57;12.63;;;6.30;99.90;;;;;;5025813;28;20469;-71
2021/12/18 17:12:49;;;;;;;27.10;13.00;;;6.30;99.90;;;;;;5025519;28;20185;-69
2021/12/18 17:15:14;;;;;;;21.17;11.80;;;6.30;99.90;;;;;;5024702;28;20206;-69
2021/12/18 17:17:40;;;;;;;22.90;12.63;;;6.30;99.90;;;;;;5026194;28;20173;-71
2021/12/18 17:20:09;;;;;;;20.50;11.13;;;6.40;99.90;;;;;;5024245;28;20704;-69
2021/12/18 17:22:36;;;;;;;22.70;10.97;;;6.40;99.90;;;;;;5025935;28;20772;-70
2021/12/18 17:25:03;;;;;;;25.47;12.80;;;6.40;99.90;;;;;;5022431;28;20496;-70
2021/12/18 17:27:28;;;;;;;26.93;13.90;;;6.40;99.90;;;;;;5023390;28;20413;-70
2021/12/18 17:29:54;;;;;;;28.70;14.73;;;6.30;99.90;;;;;;5024771;28;20439;-69
2021/12/18 17:32:19;;;;;;;24.97;11.77;;;6.30;99.90;;;;;;5026190;28;20527;-69
2021/12/18 17:34:46;;;;;;;22.60;12.73;;;6.40;99.90;;;;;;5024871;28;20536;-73
2021/12/18 17:37:12;;;;;;;23.53;12.10;;;6.30;99.90;;;;;;5025995;28;20666;-72
2021/12/18 17:39:37;;;;;;;23.27;12.00;;;6.40;99.90;;;;;;5024641;28;20979;-70
2021/12/18 17:42:03;;;;;;;22.80;12.60;;;6.40;99.90;;;;;;5025592;28;20457;-72
2021/12/18 17:44:29;;;;;;;29.10;14.80;;;6.40;99.90;;;;;;5024489;28;20464;-71
2021/12/18 17:46:55;;;;;;;27.27;15.27;;;6.30;99.90;;;;;;5024185;28;20416;-72
2021/12/18 17:49:21;;;;;;;29.70;17.07;;;6.30;99.90;;;;;;5024147;28;20170;-71
2021/12/18 17:51:47;;;;;;;27.90;16.20;;;6.30;99.90;;;;;;5025684;28;20790;-72
2021/12/18 17:54:12;;;;;;;24.30;13.50;;;6.30;99.90;;;;;;5025580;28;20170;-73
2021/12/18 17:56:38;;;;;;;26.07;13.47;;;6.20;99.90;;;;;;5018444;28;20166;-72
2021/12/18 17:59:03;;;;;;;25.60;12.50;;;6.30;99.90;;;;;;5018904;28;20211;-72
2021/12/18 18:01:31;;;;;;;25.27;12.47;;;6.30;99.90;;;;;;5023263;28;20208;-72
2021/12/18 18:04:01;;;;;;;20.07;11.40;;;6.30;99.90;;;;;;5018537;28;20198;-71
2021/12/18 18:06:28;;;;;;;24.87;12.67;;;6.30;99.90;;;;;;5022608;28;20447;-70
2021/12/18 18:08:56;;;;;;;20.57;12.07;;;6.30;99.90;;;;;;5023212;28;20496;-70
2021/12/18 18:11:22;;;;;;;23.97;11.47;;;6.30;99.90;;;;;;5022550;28;20476;-70
2021/12/18 18:13:48;;;;;;;26.93;13.03;;;6.30;99.90;;;;;;5021930;28;20948;-69
2021/12/18 18:16:17;;;;;;;19.83;11.30;;;6.30;99.90;;;;;;5024046;28;20484;-71
2021/12/18 18:18:42;;;;;;;24.03;12.30;;;6.40;99.90;;;;;;5024334;28;20201;-69
2021/12/18 18:21:08;;;;;;;22.90;12.40;;;6.40;99.90;;;;;;5024350;28;20496;-68
2021/12/18 18:23:34;;;;;;;32.07;15.50;;;6.40;99.90;;;;;;5025195;28;20166;-69
2021/12/18 18:26:00;;;;;;;58.30;29.20;;;6.40;99.90;;;;;;5018524;28;21079;-69
2021/12/18 18:28:25;;;;;;;39.40;21.37;;;6.40;99.90;;;;;;5024519;28;20325;-69
2021/12/18 18:30:52;;;;;;;35.20;18.00;;;6.40;99.90;;;;;;5023872;28;20266;-69
2021/12/18 18:33:17;;;;;;;33.90;18.13;;;6.40;99.90;;;;;;5023273;28;20177;-69
2021/12/18 18:35:43;;;;;;;30.63;16.40;;;6.40;99.90;;;;;;5023646;28;20408;-69
2021/12/18 18:38:09;;;;;;;42.20;23.57;;;6.30;99.90;;;;;;5023034;28;20643;-68
2021/12/18 18:40:36;;;;;;;31.10;15.87;;;6.20;99.90;;;;;;5024365;28;20459;-69
2021/12/18 18:43:01;;;;;;;25.23;14.13;;;6.20;99.90;;;;;;5025194;28;20720;-70
2021/12/18 18:45:31;;;;;;;26.43;13.20;;;6.20;99.90;;;;;;5023723;28;20415;-69
2021/12/18 18:48:11;;;;;;;24.73;13.50;;;6.20;99.90;;;;;;5024687;28;20190;-68
2021/12/18 18:50:38;;;;;;;21.53;11.90;;;6.30;99.90;;;;;;5023971;28;20424;-69
2021/12/18 18:53:07;;;;;;;19.53;11.00;;;6.20;99.90;;;;;;5024435;28;20429;-70
2021/12/18 18:55:33;;;;;;;23.07;11.67;;;6.30;99.90;;;;;;5020310;28;20421;-69
2021/12/18 18:57:58;;;;;;;21.70;11.67;;;6.20;99.90;;;;;;5022760;28;20495;-70
2021/12/18 19:00:26;;;;;;;19.07;9.90;;;6.20;99.90;;;;;;5023223;28;20894;-69
2021/12/18 19:02:52;;;;;;;23.80;12.13;;;6.20;99.90;;;;;;5024998;28;20188;-70
2021/12/18 19:05:18;;;;;;;22.90;11.53;;;6.20;99.90;;;;;;5023428;28;20905;-68
2021/12/18 19:07:44;;;;;;;20.97;11.20;;;6.20;99.90;;;;;;5023758;28;20419;-69
2021/12/18 19:10:12;;;;;;;22.93;11.33;;;6.10;99.90;;;;;;5024385;28;20436;-69
2021/12/18 19:12:38;;;;;;;27.17;14.70;;;6.20;99.90;;;;;;5023378;28;20424;-69
2021/12/18 19:15:05;;;;;;;23.37;11.27;;;6.20;99.90;;;;;;5023118;28;20397;-69
2021/12/18 19:17:31;;;;;;;21.30;10.70;;;6.10;99.90;;;;;;5024252;28;20224;-68
2021/12/18 19:20:05;;;;;;;22.67;10.83;;;6.10;99.90;;;;;;5022049;28;20507;-71
2021/12/18 19:22:33;;;;;;;23.93;12.00;;;6.10;99.90;;;;;;5022212;28;20173;-72
2021/12/18 19:25:02;;;;;;;34.97;17.10;;;6.10;99.90;;;;;;5020931;28;20554;-72
2021/12/18 19:27:29;;;;;;;48.60;25.43;;;6.20;99.90;;;;;;5021723;28;20578;-72
2021/12/18 19:29:55;;;;;;;31.90;15.20;;;6.10;99.90;;;;;;5023590;28;20415;-71
2021/12/18 19:32:21;;;;;;;29.03;15.90;;;6.10;99.90;;;;;;5023819;28;20416;-72
2021/12/18 19:34:46;;;;;;;31.73;16.17;;;6.30;99.90;;;;;;5021934;28;20197;-73
2021/12/18 19:37:12;;;;;;;30.87;16.03;;;6.10;99.90;;;;;;5024068;28;20417;-72
2021/12/18 19:39:37;;;;;;;23.37;12.50;;;6.10;99.90;;;;;;5023346;28;20278;-72
2021/12/18 19:42:05;;;;;;;19.70;10.90;;;6.10;99.90;;;;;;5022481;28;20230;-72
2021/12/18 19:44:30;;;;;;;19.80;10.80;;;6.10;99.90;;;;;;5023577;28;20219;-70
2021/12/18 19:46:56;;;;;;;18.40;10.13;;;6.20;99.90;;;;;;5024070;28;20405;-71
2021/12/18 19:49:22;;;;;;;21.10;10.20;;;6.20;99.90;;;;;;5025899;28;20313;-70
2021/12/18 19:51:48;;;;;;;21.40;10.93;;;6.10;99.90;;;;;;5024543;28;20266;-71
2021/12/18 19:54:13;;;;;;;17.60;10.10;;;6.50;99.90;;;;;;5025769;28;20796;-72
2021/12/18 19:56:39;;;;;;;21.23;11.07;;;6.10;99.90;;;;;;5027244;28;20947;-70
2021/12/18 19:59:04;;;;;;;24.77;11.70;;;6.30;99.90;;;;;;5027063;28;20638;-72
2021/12/18 20:01:32;;;;;;;20.57;11.63;;;6.20;99.90;;;;;;5026600;28;20209;-72
2021/12/18 20:06:41;;;;;;;21.17;11.07;;;6.10;99.90;;;;;;5026870;28;20453;-71
2021/12/18 20:09:07;;;;;;;22.40;11.73;;;6.10;99.90;;;;;;5027173;28;20405;-72
2021/12/18 20:11:32;;;;;;;24.90;12.20;;;6.20;99.90;;;;;;5026936;28;20250;-72
2021/12/18 20:14:01;;;;;;;25.33;13.37;;;6.20;99.90;;;;;;5026177;28;20174;-73
2021/12/18 20:16:28;;;;;;;25.83;13.17;;;6.20;99.90;;;;;;5026172;28;20201;-72
2021/12/18 20:18:53;;;;;;;24.70;12.43;;;6.30;99.90;;;;;;5025334;28;20421;-71
2021/12/18 20:21:19;;;;;;;19.67;10.40;;;6.10;99.90;;;;;;5026323;28;20467;-72
2021/12/18 20:23:45;;;;;;;24.00;11.20;;;6.10;99.90;;;;;;5027193;28;20187;-71
2021/12/18 20:26:11;;;;;;;20.70;11.07;;;6.00;99.90;;;;;;5026512;28;20619;-71
2021/12/18 20:28:37;;;;;;;22.00;10.60;;;6.10;99.90;;;;;;5025110;28;20229;-71
2021/12/18 20:31:03;;;;;;;23.97;12.97;;;6.10;99.90;;;;;;5024287;28;20250;-70
2021/12/18 20:33:29;;;;;;;26.40;12.20;;;6.20;99.90;;;;;;5026519;28;20977;-71
2021/12/18 20:35:59;;;;;;;24.23;12.00;;;6.30;99.90;;;;;;5025901;28;20439;-71
2021/12/18 20:38:31;;;;;;;24.50;12.67;;;6.30;99.90;;;;;;5026819;28;20416;-72
2021/12/18 20:41:00;;;;;;;23.90;11.97;;;6.30;99.90;;;;;;5026223;28;20463;-71
2021/12/18 20:43:26;;;;;;;26.43;11.67;;;6.30;99.90;;;;;;5026598;28;20413;-71
2021/12/18 20:45:51;;;;;;;28.47;11.10;;;6.30;99.90;;;;;;5024182;28;20754;-71
2021/12/18 20:48:17;;;;;;;24.60;12.97;;;6.20;99.90;;;;;;5026250;28;20163;-71
2021/12/18 20:50:42;;;;;;;24.70;12.93;;;6.20;99.90;;;;;;5025147;28;20713;-71
2021/12/18 20:53:08;;;;;;;22.87;12.23;;;6.60;99.90;;;;;;5023319;28;20170;-71
2021/12/18 20:55:34;;;;;;;22.83;11.77;;;6.30;99.90;;;;;;5022261;28;20184;-70
2021/12/18 20:58:01;;;;;;;25.80;12.30;;;6.30;99.90;;;;;;5017770;28;20171;-70
2021/12/18 21:00:31;;;;;;;25.20;12.53;;;6.40;99.90;;;;;;5024843;28;20471;-69
2021/12/18 21:02:57;;;;;;;26.50;12.90;;;6.40;99.90;;;;;;5024966;28;20421;-70
2021/12/18 21:05:25;;;;;;;24.57;12.20;;;6.40;99.90;;;;;;5024938;28;20415;-70
2021/12/18 21:07:56;;;;;;;21.10;10.80;;;6.30;99.90;;;;;;5025551;28;20428;-70
2021/12/18 21:10:26;;;;;;;23.87;11.97;;;6.30;99.90;;;;;;5025791;28;20440;-70
2021/12/18 21:12:52;;;;;;;21.80;11.37;;;6.30;99.90;;;;;;5024733;28;20440;-70
2021/12/18 21:15:18;;;;;;;23.50;11.97;;;6.20;99.90;;;;;;5023691;28;20497;-70
2021/12/18 21:17:47;;;;;;;19.30;11.30;;;6.20;99.90;;;;;;5025876;28;20408;-70
2021/12/18 21:20:13;;;;;;;25.50;12.43;;;6.20;99.90;;;;;;5023701;28;20472;-69
2021/12/18 21:22:39;;;;;;;25.47;13.53;;;6.20;99.90;;;;;;5024703;28;20457;-70
2021/12/18 21:25:06;;;;;;;25.30;12.37;;;6.20;99.90;;;;;;5025464;28;20793;-70
2021/12/18 21:27:32;;;;;;;27.53;13.93;;;6.20;99.90;;;;;;5025892;28;20167;-69
2021/12/18 21:29:57;;;;;;;25.40;14.07;;;6.30;99.90;;;;;;5023570;28;20417;-70
2021/12/18 21:32:23;;;;;;;38.10;17.37;;;6.30;99.90;;;;;;5025607;28;20245;-70
2021/12/18 21:37:16;;;;;;;43.70;20.83;;;6.30;99.90;;;;;;5025557;28;20453;-70
2021/12/18 21:39:45;;;;;;;39.83;19.90;;;6.30;99.90;;;;;;5025696;28;20197;-71
2021/12/18 21:42:14;;;;;;;38.77;19.67;;;6.30;99.90;;;;;;5024346;28;20468;-70
2021/12/18 21:44:40;;;;;;;33.70;17.53;;;6.40;99.90;;;;;;5024792;28;20433;-71
2021/12/18 21:47:09;;;;;;;25.60;13.83;;;6.90;99.90;;;;;;5024832;28;20409;-70
2021/12/18 21:49:35;;;;;;;23.40;10.60;;;6.30;99.90;;;;;;5024082;28;20420;-69
2021/12/18 21:52:03;;;;;;;20.07;10.77;;;6.40;99.90;;;;;;5025308;28;20447;-70
2021/12/18 21:54:29;;;;;;;20.37;10.40;;;6.40;99.90;;;;;;5024796;28;20181;-71
2021/12/18 21:56:55;;;;;;;20.70;11.47;;;6.60;99.90;;;;;;5023879;28;20416;-71
2021/12/18 21:59:21;;;;;;;19.40;9.90;;;6.50;99.90;;;;;;5022593;28;20421;-72
2021/12/18 22:01:48;;;;;;;21.90;11.33;;;6.40;99.90;;;;;;5009120;28;20293;-70
2021/12/18 22:04:13;;;;;;;20.90;10.33;;;6.40;99.90;;;;;;5005142;28;20679;-70
2021/12/18 22:06:40;;;;;;;25.23;10.70;;;6.30;99.90;;;;;;5004903;28;20390;-71
2021/12/18 22:09:07;;;;;;;21.60;9.93;;;6.20;99.90;;;;;;5017049;28;20178;-70
2021/12/18 22:11:44;;;;;;;19.93;11.20;;;6.20;99.90;;;;;;5024265;28;20437;-70
2021/12/18 22:14:16;;;;;;;21.57;10.60;;;6.20;99.90;;;;;;5023683;28;20413;-72
2021/12/18 22:16:42;;;;;;;20.83;10.73;;;6.20;99.90;;;;;;5022087;28;20523;-70
2021/12/18 22:19:08;;;;;;;20.90;10.93;;;6.20;99.90;;;;;;5023947;28;20449;-71
2021/12/18 22:21:34;;;;;;;24.27;11.30;;;6.20;99.90;;;;;;5022812;28;20460;-71
2021/12/18 22:24:00;;;;;;;24.73;13.63;;;6.20;99.90;;;;;;5024979;28;20409;-70
2021/12/18 22:26:25;;;;;;;21.37;10.97;;;6.10;99.90;;;;;;5023329;28;20166;-70
2021/12/18 22:28:51;;;;;;;26.30;11.20;;;6.20;99.90;;;;;;5022649;28;20180;-71
2021/12/18 22:31:17;;;;;;;24.57;11.40;;;6.20;99.90;;;;;;5023563;28;20261;-71
2021/12/18 22:33:42;;;;;;;21.47;10.73;;;6.20;99.90;;;;;;5024550;28;20176;-70
2021/12/18 22:36:08;;;;;;;22.10;10.90;;;6.10;99.90;;;;;;5024085;28;20534;-70
2021/12/18 22:38:33;;;;;;;21.27;11.40;;;6.10;99.90;;;;;;5024352;28;20178;-69
2021/12/18 22:40:59;;;;;;;24.60;11.50;;;6.10;99.90;;;;;;5024357;28;20350;-71
2021/12/18 22:43:25;;;;;;;23.70;11.03;;;6.00;99.90;;;;;;5025002;28;20311;-70
2021/12/18 22:45:51;;;;;;;22.97;11.37;;;6.10;99.90;;;;;;5023597;28;20170;-70
2021/12/18 22:48:16;;;;;;;27.40;12.00;;;6.10;99.90;;;;;;5024138;28;20612;-70
2021/12/18 22:50:42;;;;;;;22.40;11.10;;;6.00;99.90;;;;;;5023716;28;20452;-70
2021/12/18 22:53:08;;;;;;;22.83;11.17;;;6.00;99.90;;;;;;5020667;28;20741;-71
2021/12/18 22:55:35;;;;;;;23.20;11.30;;;6.00;99.90;;;;;;5022473;28;20170;-71
2021/12/18 22:58:02;;;;;;;21.30;10.40;;;6.00;99.90;;;;;;5024100;28;20587;-70
2021/12/18 23:00:38;;;;;;;24.10;12.17;;;6.00;99.90;;;;;;5022377;28;20554;-71
2021/12/18 23:03:05;;;;;;;22.60;10.73;;;6.00;99.90;;;;;;5022918;28;21102;-70
2021/12/18 23:05:32;;;;;;;25.50;12.27;;;6.00;99.90;;;;;;5022657;28;20417;-71
2021/12/18 23:07:58;;;;;;;23.47;10.73;;;6.10;99.90;;;;;;5022479;28;20518;-71
2021/12/18 23:10:25;;;;;;;27.23;10.40;;;6.00;99.90;;;;;;5024178;28;20428;-71
2021/12/18 23:15:38;;;;;;;21.20;9.90;;;6.00;99.90;;;;;;5023912;28;20428;-72
2021/12/18 23:18:19;;;;;;;24.23;11.30;;;5.90;99.90;;;;;;5023662;28;20401;-71
2021/12/18 23:20:46;;;;;;;18.23;10.03;;;5.80;99.90;;;;;;5015424;28;20529;-72
2021/12/18 23:23:13;;;;;;;20.67;10.13;;;6.10;99.90;;;;;;5026650;28;20546;-70
2021/12/18 23:25:39;;;;;;;19.90;9.80;;;5.80;99.90;;;;;;5025655;28;20512;-70
2021/12/18 23:28:08;;;;;;;15.03;8.53;;;5.80;99.90;;;;;;5027632;28;20864;-70
2021/12/18 23:30:34;;;;;;;16.50;9.10;;;5.80;99.90;;;;;;5025681;28;20190;-70
2021/12/18 23:33:01;;;;;;;17.67;9.00;;;5.80;99.90;;;;;;5026836;28;20412;-70
2021/12/18 23:35:27;;;;;;;19.17;9.30;;;5.90;99.90;;;;;;5025159;28;20231;-70
2021/12/18 23:37:52;;;;;;;16.33;8.77;;;5.80;99.90;;;;;;5027450;28;20412;-70
2021/12/18 23:40:20;;;;;;;15.40;8.27;;;5.80;99.90;;;;;;5026764;28;20341;-71
2021/12/18 23:42:55;;;;;;;16.87;9.10;;;5.90;99.90;;;;;;5025825;28;20166;-72
2021/12/18 23:48:05;;;;;;;15.83;9.20;;;6.20;99.90;;;;;;5026887;28;20509;-71
2021/12/18 23:50:32;;;;;;;16.93;9.17;;;5.90;99.90;;;;;;5026140;28;20479;-70
2021/12/18 23:52:58;;;;;;;20.30;9.93;;;5.90;99.90;;;;;;5024257;28;20551;-70
2021/12/18 23:55:24;;;;;;;20.00;10.40;;;6.10;99.90;;;;;;5026685;28;20499;-70
2021/12/18 23:57:50;;;;;;;20.33;10.37;;;5.90;99.90;;;;;;5027047;28;20176;-71
